sensor_id;sensor_type;location;lat;lon;timestamp;P1;durP1;ratioP1;P2;durP2;ratioP2
75295;SDS011;64623;44.738;37.804;2024-03-29T00:00:40;7.80;;;1.52;;
75295;SDS011;64623;44.738;37.804;2024-03-29T00:01:44;7.40;;;1.45;;
75295;SDS011;64623;44.738;37.804;2024-03-29T00:02:50;7.00;;;1.75;;
75295;SDS011;64623;44.738;37.804;2024-03-29T00:03:52;7.63;;;1.77;;
75295;SDS011;64623;44.738;37.804;2024-03-29T00:04:54;4.63;;;1.83;;
75295;SDS011;64623;44.738;37.804;2024-03-29T00:05:56;5.85;;;1.50;;
75295;SDS011;64623;44.738;37.804;2024-03-29T00:06:58;4.55;;;1.20;;
75295;SDS011;64623;44.738;37.804;2024-03-29T00:09:03;7.18;;;3.53;;
75295;SDS011;64623;44.738;37.804;2024-03-29T00:11:07;10.00;;;3.30;;
75295;SDS011;64623;44.738;37.804;2024-03-29T00:12:09;5.40;;;3.00;;
75295;SDS011;64623;44.738;37.804;2024-03-29T00:14:13;9.63;;;2.60;;
75295;SDS011;64623;44.738;37.804;2024-03-29T00:15:15;8.18;;;2.30;;
75295;SDS011;64623;44.738;37.804;2024-03-29T00:16:17;7.65;;;2.15;;
75295;SDS011;64623;44.738;37.804;2024-03-29T00:18:22;6.40;;;2.40;;
75295;SDS011;64623;44.738;37.804;2024-03-29T00:19:24;7.60;;;2.10;;
75295;SDS011;64623;44.738;37.804;2024-03-29T00:21:30;6.35;;;2.35;;
75295;SDS011;64623;44.738;37.804;2024-03-29T00:22:32;8.43;;;2.42;;
75295;SDS011;64623;44.738;37.804;2024-03-29T00:23:34;6.97;;;2.25;;
75295;SDS011;64623;44.738;37.804;2024-03-29T00:24:37;5.80;;;2.53;;
75295;SDS011;64623;44.738;37.804;2024-03-29T00:25:39;5.15;;;1.48;;
75295;SDS011;64623;44.738;37.804;2024-03-29T00:27:43;14.20;;;4.20;;
75295;SDS011;64623;44.738;37.804;2024-03-29T00:28:45;12.68;;;3.72;;
75295;SDS011;64623;44.738;37.804;2024-03-29T00:30:54;12.25;;;3.05;;
75295;SDS011;64623;44.738;37.804;2024-03-29T00:31:56;15.07;;;3.80;;
75295;SDS011;64623;44.738;37.804;2024-03-29T00:32:58;8.95;;;2.85;;
75295;SDS011;64623;44.738;37.804;2024-03-29T00:34:00;12.13;;;3.40;;
75295;SDS011;64623;44.738;37.804;2024-03-29T00:36:04;9.02;;;2.70;;
75295;SDS011;64623;44.738;37.804;2024-03-29T00:37:06;12.65;;;3.88;;
75295;SDS011;64623;44.738;37.804;2024-03-29T00:38:08;6.47;;;2.75;;
75295;SDS011;64623;44.738;37.804;2024-03-29T00:39:11;11.30;;;1.48;;
75295;SDS011;64623;44.738;37.804;2024-03-29T00:40:13;5.82;;;1.55;;
75295;SDS011;64623;44.738;37.804;2024-03-29T00:41:15;8.80;;;2.65;;
75295;SDS011;64623;44.738;37.804;2024-03-29T00:42:17;4.90;;;1.30;;
75295;SDS011;64623;44.738;37.804;2024-03-29T00:43:20;8.13;;;2.25;;
75295;SDS011;64623;44.738;37.804;2024-03-29T00:44:23;4.05;;;1.70;;
75295;SDS011;64623;44.738;37.804;2024-03-29T00:45:25;6.60;;;2.03;;
75295;SDS011;64623;44.738;37.804;2024-03-29T00:47:29;6.72;;;1.98;;
75295;SDS011;64623;44.738;37.804;2024-03-29T00:48:31;8.13;;;2.30;;
75295;SDS011;64623;44.738;37.804;2024-03-29T00:49:33;7.15;;;2.67;;
75295;SDS011;64623;44.738;37.804;2024-03-29T00:50:35;18.27;;;6.43;;
75295;SDS011;64623;44.738;37.804;2024-03-29T00:51:39;19.27;;;10.30;;
75295;SDS011;64623;44.738;37.804;2024-03-29T00:53:43;25.50;;;11.35;;
75295;SDS011;64623;44.738;37.804;2024-03-29T00:55:46;21.83;;;10.80;;
75295;SDS011;64623;44.738;37.804;2024-03-29T00:56:49;19.42;;;8.43;;
75295;SDS011;64623;44.738;37.804;2024-03-29T00:57:51;16.58;;;9.57;;
75295;SDS011;64623;44.738;37.804;2024-03-29T00:58:53;25.83;;;8.82;;
75295;SDS011;64623;44.738;37.804;2024-03-29T00:59:55;15.45;;;7.22;;
75295;SDS011;64623;44.738;37.804;2024-03-29T01:01:00;16.33;;;6.72;;
75295;SDS011;64623;44.738;37.804;2024-03-29T01:03:04;15.60;;;4.78;;
75295;SDS011;64623;44.738;37.804;2024-03-29T01:04:06;14.55;;;4.63;;
75295;SDS011;64623;44.738;37.804;2024-03-29T01:05:11;10.60;;;4.97;;
75295;SDS011;64623;44.738;37.804;2024-03-29T01:06:13;14.82;;;5.05;;
75295;SDS011;64623;44.738;37.804;2024-03-29T01:08:21;13.25;;;5.07;;
75295;SDS011;64623;44.738;37.804;2024-03-29T01:09:24;13.52;;;4.72;;
75295;SDS011;64623;44.738;37.804;2024-03-29T01:10:27;12.60;;;4.93;;
75295;SDS011;64623;44.738;37.804;2024-03-29T01:12:36;16.90;;;5.90;;
75295;SDS011;64623;44.738;37.804;2024-03-29T01:13:38;15.32;;;4.72;;
75295;SDS011;64623;44.738;37.804;2024-03-29T01:15:42;12.65;;;4.35;;
75295;SDS011;64623;44.738;37.804;2024-03-29T01:17:45;9.80;;;3.28;;
75295;SDS011;64623;44.738;37.804;2024-03-29T01:18:47;7.15;;;2.88;;
75295;SDS011;64623;44.738;37.804;2024-03-29T01:19:49;8.60;;;2.40;;
75295;SDS011;64623;44.738;37.804;2024-03-29T01:21:53;4.50;;;1.42;;
75295;SDS011;64623;44.738;37.804;2024-03-29T01:23:57;4.90;;;1.80;;
75295;SDS011;64623;44.738;37.804;2024-03-29T01:25:02;7.97;;;1.33;;
75295;SDS011;64623;44.738;37.804;2024-03-29T01:26:09;2.13;;;1.23;;
75295;SDS011;64623;44.738;37.804;2024-03-29T01:27:14;4.68;;;1.50;;
75295;SDS011;64623;44.738;37.804;2024-03-29T01:28:16;6.90;;;1.00;;
75295;SDS011;64623;44.738;37.804;2024-03-29T01:30:20;3.42;;;1.33;;
75295;SDS011;64623;44.738;37.804;2024-03-29T01:31:23;3.35;;;1.67;;
75295;SDS011;64623;44.738;37.804;2024-03-29T01:32:25;2.85;;;1.00;;
75295;SDS011;64623;44.738;37.804;2024-03-29T01:34:30;4.72;;;1.75;;
75295;SDS011;64623;44.738;37.804;2024-03-29T01:35:32;3.35;;;1.25;;
75295;SDS011;64623;44.738;37.804;2024-03-29T01:37:36;3.72;;;0.57;;
75295;SDS011;64623;44.738;37.804;2024-03-29T01:38:38;2.28;;;1.10;;
75295;SDS011;64623;44.738;37.804;2024-03-29T01:39:40;3.60;;;0.73;;
75295;SDS011;64623;44.738;37.804;2024-03-29T01:41:44;1.77;;;0.60;;
75295;SDS011;64623;44.738;37.804;2024-03-29T01:42:46;2.92;;;0.80;;
75295;SDS011;64623;44.738;37.804;2024-03-29T01:43:48;1.50;;;0.52;;
75295;SDS011;64623;44.738;37.804;2024-03-29T01:44:51;1.45;;;0.57;;
75295;SDS011;64623;44.738;37.804;2024-03-29T01:45:53;2.35;;;0.73;;
75295;SDS011;64623;44.738;37.804;2024-03-29T01:46:56;1.55;;;0.60;;
75295;SDS011;64623;44.738;37.804;2024-03-29T01:49:00;1.35;;;0.65;;
75295;SDS011;64623;44.738;37.804;2024-03-29T01:50:03;3.28;;;1.33;;
75295;SDS011;64623;44.738;37.804;2024-03-29T01:51:06;3.65;;;0.57;;
75295;SDS011;64623;44.738;37.804;2024-03-29T01:52:08;7.22;;;1.20;;
75295;SDS011;64623;44.738;37.804;2024-03-29T01:53:10;2.13;;;0.80;;
75295;SDS011;64623;44.738;37.804;2024-03-29T01:54:13;3.85;;;0.93;;
75295;SDS011;64623;44.738;37.804;2024-03-29T01:55:15;6.65;;;0.98;;
75295;SDS011;64623;44.738;37.804;2024-03-29T01:56:18;6.75;;;1.83;;
75295;SDS011;64623;44.738;37.804;2024-03-29T01:57:23;7.63;;;1.13;;
75295;SDS011;64623;44.738;37.804;2024-03-29T01:58:25;3.67;;;0.95;;
75295;SDS011;64623;44.738;37.804;2024-03-29T01:59:28;6.00;;;1.45;;
75295;SDS011;64623;44.738;37.804;2024-03-29T02:00:30;5.45;;;1.00;;
75295;SDS011;64623;44.738;37.804;2024-03-29T02:01:37;3.60;;;0.75;;
75295;SDS011;64623;44.738;37.804;2024-03-29T02:02:40;3.03;;;0.80;;
75295;SDS011;64623;44.738;37.804;2024-03-29T02:03:43;6.35;;;1.10;;
75295;SDS011;64623;44.738;37.804;2024-03-29T02:04:45;2.70;;;0.82;;
75295;SDS011;64623;44.738;37.804;2024-03-29T02:05:50;3.88;;;1.08;;
75295;SDS011;64623;44.738;37.804;2024-03-29T02:06:52;3.00;;;0.70;;
75295;SDS011;64623;44.738;37.804;2024-03-29T02:07:54;3.83;;;0.85;;
75295;SDS011;64623;44.738;37.804;2024-03-29T02:08:58;3.75;;;0.70;;
75295;SDS011;64623;44.738;37.804;2024-03-29T02:11:02;2.95;;;0.98;;
75295;SDS011;64623;44.738;37.804;2024-03-29T02:12:05;2.53;;;0.50;;
75295;SDS011;64623;44.738;37.804;2024-03-29T02:13:07;5.10;;;0.63;;
75295;SDS011;64623;44.738;37.804;2024-03-29T02:14:10;4.13;;;0.68;;
75295;SDS011;64623;44.738;37.804;2024-03-29T02:16:18;4.03;;;0.75;;
75295;SDS011;64623;44.738;37.804;2024-03-29T02:17:20;1.85;;;0.38;;
75295;SDS011;64623;44.738;37.804;2024-03-29T02:18:23;2.30;;;0.52;;
75295;SDS011;64623;44.738;37.804;2024-03-29T02:19:25;3.60;;;0.60;;
75295;SDS011;64623;44.738;37.804;2024-03-29T02:21:29;3.58;;;0.63;;
75295;SDS011;64623;44.738;37.804;2024-03-29T02:22:33;2.72;;;0.55;;
75295;SDS011;64623;44.738;37.804;2024-03-29T02:24:45;2.45;;;0.82;;
75295;SDS011;64623;44.738;37.804;2024-03-29T02:25:47;3.53;;;0.93;;
75295;SDS011;64623;44.738;37.804;2024-03-29T02:26:49;5.88;;;1.35;;
75295;SDS011;64623;44.738;37.804;2024-03-29T02:27:51;4.32;;;1.20;;
75295;SDS011;64623;44.738;37.804;2024-03-29T02:28:55;4.50;;;1.10;;
75295;SDS011;64623;44.738;37.804;2024-03-29T02:30:59;3.88;;;0.93;;
75295;SDS011;64623;44.738;37.804;2024-03-29T02:32:02;5.28;;;1.08;;
75295;SDS011;64623;44.738;37.804;2024-03-29T02:33:05;4.63;;;1.02;;
75295;SDS011;64623;44.738;37.804;2024-03-29T02:34:07;5.35;;;1.58;;
75295;SDS011;64623;44.738;37.804;2024-03-29T02:35:10;2.70;;;0.80;;
75295;SDS011;64623;44.738;37.804;2024-03-29T02:36:12;4.50;;;1.17;;
75295;SDS011;64623;44.738;37.804;2024-03-29T02:37:15;5.65;;;0.88;;
75295;SDS011;64623;44.738;37.804;2024-03-29T02:39:19;4.13;;;0.35;;
75295;SDS011;64623;44.738;37.804;2024-03-29T02:40:21;2.78;;;0.77;;
75295;SDS011;64623;44.738;37.804;2024-03-29T02:41:23;2.75;;;0.70;;
75295;SDS011;64623;44.738;37.804;2024-03-29T02:42:27;2.35;;;0.43;;
75295;SDS011;64623;44.738;37.804;2024-03-29T02:44:31;2.88;;;0.70;;
75295;SDS011;64623;44.738;37.804;2024-03-29T02:46:35;1.50;;;0.63;;
75295;SDS011;64623;44.738;37.804;2024-03-29T02:47:37;4.57;;;0.80;;
75295;SDS011;64623;44.738;37.804;2024-03-29T02:49:40;2.67;;;0.75;;
75295;SDS011;64623;44.738;37.804;2024-03-29T02:51:44;1.65;;;0.52;;
75295;SDS011;64623;44.738;37.804;2024-03-29T02:52:46;1.67;;;0.52;;
75295;SDS011;64623;44.738;37.804;2024-03-29T02:53:49;9.30;;;1.15;;
75295;SDS011;64623;44.738;37.804;2024-03-29T02:55:52;2.13;;;0.75;;
75295;SDS011;64623;44.738;37.804;2024-03-29T02:56:55;2.38;;;0.65;;
75295;SDS011;64623;44.738;37.804;2024-03-29T02:57:57;4.50;;;1.02;;
75295;SDS011;64623;44.738;37.804;2024-03-29T03:00:01;2.83;;;0.88;;
75295;SDS011;64623;44.738;37.804;2024-03-29T03:01:08;4.13;;;1.45;;
75295;SDS011;64623;44.738;37.804;2024-03-29T03:02:10;3.83;;;1.23;;
75295;SDS011;64623;44.738;37.804;2024-03-29T03:03:15;4.72;;;1.48;;
75295;SDS011;64623;44.738;37.804;2024-03-29T03:04:18;2.38;;;1.02;;
75295;SDS011;64623;44.738;37.804;2024-03-29T03:05:20;4.70;;;1.20;;
75295;SDS011;64623;44.738;37.804;2024-03-29T03:07:24;3.65;;;1.23;;
75295;SDS011;64623;44.738;37.804;2024-03-29T03:08:45;6.60;;;1.27;;
75295;SDS011;64623;44.738;37.804;2024-03-29T03:10:05;6.65;;;1.17;;
75295;SDS011;64623;44.738;37.804;2024-03-29T03:11:26;3.47;;;2.28;;
75295;SDS011;64623;44.738;37.804;2024-03-29T03:13:33;6.45;;;4.97;;
75295;SDS011;64623;44.738;37.804;2024-03-29T03:15:36;4.55;;;2.95;;
75295;SDS011;64623;44.738;37.804;2024-03-29T03:16:39;2.88;;;2.22;;
75295;SDS011;64623;44.738;37.804;2024-03-29T03:17:41;2.70;;;2.13;;
75295;SDS011;64623;44.738;37.804;2024-03-29T03:19:45;3.05;;;1.77;;
75295;SDS011;64623;44.738;37.804;2024-03-29T03:21:55;4.72;;;1.92;;
75295;SDS011;64623;44.738;37.804;2024-03-29T03:22:57;4.45;;;1.77;;
75295;SDS011;64623;44.738;37.804;2024-03-29T03:25:01;3.40;;;1.63;;
75295;SDS011;64623;44.738;37.804;2024-03-29T03:26:04;3.55;;;1.85;;
75295;SDS011;64623;44.738;37.804;2024-03-29T03:28:07;3.40;;;1.83;;
75295;SDS011;64623;44.738;37.804;2024-03-29T03:29:11;2.17;;;1.48;;
75295;SDS011;64623;44.738;37.804;2024-03-29T03:31:15;3.22;;;1.58;;
75295;SDS011;64623;44.738;37.804;2024-03-29T03:33:19;2.78;;;1.00;;
75295;SDS011;64623;44.738;37.804;2024-03-29T03:34:22;2.45;;;1.23;;
75295;SDS011;64623;44.738;37.804;2024-03-29T03:36:25;1.88;;;1.00;;
75295;SDS011;64623;44.738;37.804;2024-03-29T03:38:30;3.40;;;1.58;;
75295;SDS011;64623;44.738;37.804;2024-03-29T03:39:32;3.65;;;1.02;;
75295;SDS011;64623;44.738;37.804;2024-03-29T03:40:35;2.92;;;0.93;;
75295;SDS011;64623;44.738;37.804;2024-03-29T03:41:38;4.10;;;0.80;;
75295;SDS011;64623;44.738;37.804;2024-03-29T03:43:42;1.77;;;1.20;;
75295;SDS011;64623;44.738;37.804;2024-03-29T03:45:46;1.80;;;0.85;;
75295;SDS011;64623;44.738;37.804;2024-03-29T03:46:49;1.30;;;0.65;;
75295;SDS011;64623;44.738;37.804;2024-03-29T03:47:51;4.75;;;1.05;;
75295;SDS011;64623;44.738;37.804;2024-03-29T03:49:55;1.83;;;0.90;;
75295;SDS011;64623;44.738;37.804;2024-03-29T03:50:57;1.63;;;0.68;;
75295;SDS011;64623;44.738;37.804;2024-03-29T03:51:59;1.13;;;0.40;;
75295;SDS011;64623;44.738;37.804;2024-03-29T03:53:01;2.28;;;0.93;;
75295;SDS011;64623;44.738;37.804;2024-03-29T03:54:04;2.45;;;1.25;;
75295;SDS011;64623;44.738;37.804;2024-03-29T03:55:06;2.58;;;0.77;;
75295;SDS011;64623;44.738;37.804;2024-03-29T03:56:08;1.83;;;0.93;;
75295;SDS011;64623;44.738;37.804;2024-03-29T03:57:10;2.63;;;0.50;;
75295;SDS011;64623;44.738;37.804;2024-03-29T03:59:14;4.20;;;0.90;;
75295;SDS011;64623;44.738;37.804;2024-03-29T04:00:19;1.85;;;0.60;;
75295;SDS011;64623;44.738;37.804;2024-03-29T04:01:22;2.55;;;0.60;;
75295;SDS011;64623;44.738;37.804;2024-03-29T04:03:26;1.85;;;0.73;;
75295;SDS011;64623;44.738;37.804;2024-03-29T04:05:30;4.22;;;1.40;;
75295;SDS011;64623;44.738;37.804;2024-03-29T04:06:34;3.55;;;1.48;;
75295;SDS011;64623;44.738;37.804;2024-03-29T04:07:36;6.15;;;1.70;;
75295;SDS011;64623;44.738;37.804;2024-03-29T04:08:38;3.28;;;1.33;;
75295;SDS011;64623;44.738;37.804;2024-03-29T04:09:40;2.75;;;0.75;;
75295;SDS011;64623;44.738;37.804;2024-03-29T04:10:42;1.70;;;0.70;;
75295;SDS011;64623;44.738;37.804;2024-03-29T04:11:44;2.85;;;1.27;;
75295;SDS011;64623;44.738;37.804;2024-03-29T04:13:48;1.73;;;0.82;;
75295;SDS011;64623;44.738;37.804;2024-03-29T04:14:50;2.63;;;0.90;;
75295;SDS011;64623;44.738;37.804;2024-03-29T04:16:54;2.42;;;1.08;;
75295;SDS011;64623;44.738;37.804;2024-03-29T04:17:56;3.20;;;0.75;;
75295;SDS011;64623;44.738;37.804;2024-03-29T04:18:58;2.20;;;0.52;;
75295;SDS011;64623;44.738;37.804;2024-03-29T04:20:00;2.63;;;1.00;;
75295;SDS011;64623;44.738;37.804;2024-03-29T04:21:03;2.38;;;0.68;;
75295;SDS011;64623;44.738;37.804;2024-03-29T04:22:06;3.53;;;0.73;;
75295;SDS011;64623;44.738;37.804;2024-03-29T04:24:10;3.30;;;0.75;;
75295;SDS011;64623;44.738;37.804;2024-03-29T04:25:12;3.25;;;0.77;;
75295;SDS011;64623;44.738;37.804;2024-03-29T04:26:15;2.92;;;0.52;;
75295;SDS011;64623;44.738;37.804;2024-03-29T04:27:18;2.67;;;1.27;;
75295;SDS011;64623;44.738;37.804;2024-03-29T04:28:20;2.72;;;1.10;;
75295;SDS011;64623;44.738;37.804;2024-03-29T04:29:22;2.22;;;1.08;;
75295;SDS011;64623;44.738;37.804;2024-03-29T04:30:24;4.95;;;1.83;;
75295;SDS011;64623;44.738;37.804;2024-03-29T04:31:26;2.63;;;0.90;;
75295;SDS011;64623;44.738;37.804;2024-03-29T04:32:28;2.95;;;0.88;;
75295;SDS011;64623;44.738;37.804;2024-03-29T04:34:33;4.45;;;0.75;;
75295;SDS011;64623;44.738;37.804;2024-03-29T04:35:35;7.60;;;2.20;;
75295;SDS011;64623;44.738;37.804;2024-03-29T04:36:37;6.03;;;1.73;;
75295;SDS011;64623;44.738;37.804;2024-03-29T04:37:40;4.57;;;2.25;;
75295;SDS011;64623;44.738;37.804;2024-03-29T04:39:46;3.00;;;1.05;;
75295;SDS011;64623;44.738;37.804;2024-03-29T04:40:48;4.88;;;1.73;;
75295;SDS011;64623;44.738;37.804;2024-03-29T04:41:52;3.88;;;1.70;;
75295;SDS011;64623;44.738;37.804;2024-03-29T04:42:54;2.85;;;1.08;;
75295;SDS011;64623;44.738;37.804;2024-03-29T04:44:58;1.63;;;1.02;;
75295;SDS011;64623;44.738;37.804;2024-03-29T04:46:03;2.58;;;1.05;;
75295;SDS011;64623;44.738;37.804;2024-03-29T04:47:23;2.58;;;0.70;;
75295;SDS011;64623;44.738;37.804;2024-03-29T04:48:26;5.75;;;0.93;;
75295;SDS011;64623;44.738;37.804;2024-03-29T04:50:34;6.20;;;1.75;;
75295;SDS011;64623;44.738;37.804;2024-03-29T04:51:36;8.18;;;2.22;;
75295;SDS011;64623;44.738;37.804;2024-03-29T04:52:39;7.68;;;1.90;;
75295;SDS011;64623;44.738;37.804;2024-03-29T04:53:41;4.28;;;1.95;;
75295;SDS011;64623;44.738;37.804;2024-03-29T04:54:43;9.45;;;2.17;;
75295;SDS011;64623;44.738;37.804;2024-03-29T04:55:45;5.43;;;2.20;;
75295;SDS011;64623;44.738;37.804;2024-03-29T04:56:49;9.25;;;2.50;;
75295;SDS011;64623;44.738;37.804;2024-03-29T04:57:51;10.18;;;2.90;;
75295;SDS011;64623;44.738;37.804;2024-03-29T04:58:53;7.40;;;2.88;;
75295;SDS011;64623;44.738;37.804;2024-03-29T05:00:57;10.40;;;2.38;;
75295;SDS011;64623;44.738;37.804;2024-03-29T05:01:59;5.15;;;2.00;;
75295;SDS011;64623;44.738;37.804;2024-03-29T05:03:02;10.60;;;1.77;;
75295;SDS011;64623;44.738;37.804;2024-03-29T05:04:04;8.93;;;2.13;;
75295;SDS011;64623;44.738;37.804;2024-03-29T05:05:07;5.68;;;2.35;;
75295;SDS011;64623;44.738;37.804;2024-03-29T05:06:09;7.03;;;1.48;;
75295;SDS011;64623;44.738;37.804;2024-03-29T05:08:13;3.08;;;0.85;;
75295;SDS011;64623;44.738;37.804;2024-03-29T05:09:15;2.83;;;1.40;;
75295;SDS011;64623;44.738;37.804;2024-03-29T05:11:19;2.45;;;0.95;;
75295;SDS011;64623;44.738;37.804;2024-03-29T05:12:22;2.83;;;1.55;;
75295;SDS011;64623;44.738;37.804;2024-03-29T05:14:25;2.30;;;0.95;;
75295;SDS011;64623;44.738;37.804;2024-03-29T05:16:29;3.67;;;1.60;;
75295;SDS011;64623;44.738;37.804;2024-03-29T05:17:31;4.90;;;1.55;;
75295;SDS011;64623;44.738;37.804;2024-03-29T05:18:33;1.85;;;0.80;;
75295;SDS011;64623;44.738;37.804;2024-03-29T05:20:37;2.53;;;1.33;;
75295;SDS011;64623;44.738;37.804;2024-03-29T05:21:42;2.47;;;1.38;;
75295;SDS011;64623;44.738;37.804;2024-03-29T05:22:44;2.13;;;0.88;;
75295;SDS011;64623;44.738;37.804;2024-03-29T05:23:46;2.08;;;1.05;;
75295;SDS011;64623;44.738;37.804;2024-03-29T05:24:52;1.90;;;1.20;;
75295;SDS011;64623;44.738;37.804;2024-03-29T05:25:55;2.05;;;1.73;;
75295;SDS011;64623;44.738;37.804;2024-03-29T05:26:57;4.18;;;1.73;;
75295;SDS011;64623;44.738;37.804;2024-03-29T05:27:59;2.95;;;2.20;;
75295;SDS011;64623;44.738;37.804;2024-03-29T05:29:03;4.70;;;2.67;;
75295;SDS011;64623;44.738;37.804;2024-03-29T05:30:05;2.47;;;1.27;;
75295;SDS011;64623;44.738;37.804;2024-03-29T05:31:12;3.88;;;1.63;;
75295;SDS011;64623;44.738;37.804;2024-03-29T05:32:15;10.65;;;2.80;;
75295;SDS011;64623;44.738;37.804;2024-03-29T05:33:18;15.52;;;5.18;;
75295;SDS011;64623;44.738;37.804;2024-03-29T05:35:22;33.72;;;9.65;;
75295;SDS011;64623;44.738;37.804;2024-03-29T05:36:24;43.60;;;11.02;;
75295;SDS011;64623;44.738;37.804;2024-03-29T05:38:28;47.45;;;13.00;;
75295;SDS011;64623;44.738;37.804;2024-03-29T05:39:30;52.15;;;13.60;;
75295;SDS011;64623;44.738;37.804;2024-03-29T05:40:32;50.72;;;13.00;;
75295;SDS011;64623;44.738;37.804;2024-03-29T05:41:34;48.03;;;14.05;;
75295;SDS011;64623;44.738;37.804;2024-03-29T05:42:36;52.22;;;14.82;;
75295;SDS011;64623;44.738;37.804;2024-03-29T05:43:39;51.78;;;13.75;;
75295;SDS011;64623;44.738;37.804;2024-03-29T05:44:44;44.38;;;13.35;;
75295;SDS011;64623;44.738;37.804;2024-03-29T05:45:46;50.97;;;14.35;;
75295;SDS011;64623;44.738;37.804;2024-03-29T05:46:48;39.50;;;11.05;;
75295;SDS011;64623;44.738;37.804;2024-03-29T05:47:51;22.25;;;7.68;;
75295;SDS011;64623;44.738;37.804;2024-03-29T05:48:54;19.63;;;5.82;;
75295;SDS011;64623;44.738;37.804;2024-03-29T05:49:56;13.75;;;3.95;;
75295;SDS011;64623;44.738;37.804;2024-03-29T05:50:58;14.73;;;3.55;;
75295;SDS011;64623;44.738;37.804;2024-03-29T05:52:00;9.07;;;3.03;;
75295;SDS011;64623;44.738;37.804;2024-03-29T05:53:02;9.38;;;2.40;;
75295;SDS011;64623;44.738;37.804;2024-03-29T05:54:05;6.18;;;2.05;;
75295;SDS011;64623;44.738;37.804;2024-03-29T05:55:07;6.55;;;1.55;;
75295;SDS011;64623;44.738;37.804;2024-03-29T05:56:11;11.48;;;2.10;;
75295;SDS011;64623;44.738;37.804;2024-03-29T05:58:14;10.52;;;2.40;;
75295;SDS011;64623;44.738;37.804;2024-03-29T05:59:19;14.55;;;2.45;;
75295;SDS011;64623;44.738;37.804;2024-03-29T06:00:21;14.55;;;2.92;;
75295;SDS011;64623;44.738;37.804;2024-03-29T06:01:23;11.20;;;2.13;;
75295;SDS011;64623;44.738;37.804;2024-03-29T06:03:27;3.03;;;1.33;;
75295;SDS011;64623;44.738;37.804;2024-03-29T06:04:29;4.60;;;1.73;;
75295;SDS011;64623;44.738;37.804;2024-03-29T06:05:35;5.00;;;1.20;;
75295;SDS011;64623;44.738;37.804;2024-03-29T06:06:37;9.05;;;2.15;;
75295;SDS011;64623;44.738;37.804;2024-03-29T06:08:41;4.85;;;1.63;;
75295;SDS011;64623;44.738;37.804;2024-03-29T06:09:43;5.15;;;1.10;;
75295;SDS011;64623;44.738;37.804;2024-03-29T06:10:45;3.50;;;0.88;;
75295;SDS011;64623;44.738;37.804;2024-03-29T06:12:49;3.13;;;1.10;;
75295;SDS011;64623;44.738;37.804;2024-03-29T06:13:51;2.05;;;0.95;;
75295;SDS011;64623;44.738;37.804;2024-03-29T06:14:56;6.70;;;1.60;;
75295;SDS011;64623;44.738;37.804;2024-03-29T06:16:16;4.05;;;1.05;;
75295;SDS011;64623;44.738;37.804;2024-03-29T06:17:37;3.20;;;1.38;;
75295;SDS011;64623;44.738;37.804;2024-03-29T06:18:39;6.53;;;1.73;;
75295;SDS011;64623;44.738;37.804;2024-03-29T06:19:41;9.77;;;2.08;;
75295;SDS011;64623;44.738;37.804;2024-03-29T06:21:46;13.65;;;2.15;;
75295;SDS011;64623;44.738;37.804;2024-03-29T06:23:50;12.70;;;2.25;;
75295;SDS011;64623;44.738;37.804;2024-03-29T06:24:52;23.70;;;2.88;;
75295;SDS011;64623;44.738;37.804;2024-03-29T06:25:55;17.33;;;2.67;;
75295;SDS011;64623;44.738;37.804;2024-03-29T06:27:58;19.45;;;2.50;;
75295;SDS011;64623;44.738;37.804;2024-03-29T06:29:01;14.77;;;2.33;;
75295;SDS011;64623;44.738;37.804;2024-03-29T06:30:04;12.65;;;2.60;;
75295;SDS011;64623;44.738;37.804;2024-03-29T06:31:07;9.13;;;2.15;;
75295;SDS011;64623;44.738;37.804;2024-03-29T06:33:11;19.88;;;2.10;;
75295;SDS011;64623;44.738;37.804;2024-03-29T06:34:13;14.27;;;2.58;;
75295;SDS011;64623;44.738;37.804;2024-03-29T06:35:15;19.33;;;3.17;;
75295;SDS011;64623;44.738;37.804;2024-03-29T06:36:17;14.88;;;2.72;;
75295;SDS011;64623;44.738;37.804;2024-03-29T06:38:23;15.75;;;4.68;;
75295;SDS011;64623;44.738;37.804;2024-03-29T06:39:25;14.60;;;3.80;;
75295;SDS011;64623;44.738;37.804;2024-03-29T06:40:27;27.52;;;6.32;;
75295;SDS011;64623;44.738;37.804;2024-03-29T06:41:29;30.58;;;8.02;;
75295;SDS011;64623;44.738;37.804;2024-03-29T06:43:33;3.90;;;2.08;;
75295;SDS011;64623;44.738;37.804;2024-03-29T06:44:35;8.68;;;1.75;;
75295;SDS011;64623;44.738;37.804;2024-03-29T06:45:41;11.95;;;2.58;;
75295;SDS011;64623;44.738;37.804;2024-03-29T06:46:46;8.95;;;1.98;;
75295;SDS011;64623;44.738;37.804;2024-03-29T06:47:48;7.78;;;2.42;;
75295;SDS011;64623;44.738;37.804;2024-03-29T06:48:50;7.90;;;1.70;;
75295;SDS011;64623;44.738;37.804;2024-03-29T06:49:52;8.98;;;1.70;;
75295;SDS011;64623;44.738;37.804;2024-03-29T06:51:56;24.77;;;2.75;;
75295;SDS011;64623;44.738;37.804;2024-03-29T06:53:01;13.07;;;1.58;;
75295;SDS011;64623;44.738;37.804;2024-03-29T06:54:03;8.60;;;2.17;;
75295;SDS011;64623;44.738;37.804;2024-03-29T06:55:05;10.27;;;1.95;;
75295;SDS011;64623;44.738;37.804;2024-03-29T06:56:07;12.05;;;2.58;;
75295;SDS011;64623;44.738;37.804;2024-03-29T06:57:10;15.95;;;2.58;;
75295;SDS011;64623;44.738;37.804;2024-03-29T06:58:16;13.57;;;2.75;;
75295;SDS011;64623;44.738;37.804;2024-03-29T06:59:18;17.40;;;3.00;;
75295;SDS011;64623;44.738;37.804;2024-03-29T07:00:22;3.67;;;0.77;;
75295;SDS011;64623;44.738;37.804;2024-03-29T07:01:24;6.03;;;1.10;;
75295;SDS011;64623;44.738;37.804;2024-03-29T07:02:26;9.43;;;0.80;;
75295;SDS011;64623;44.738;37.804;2024-03-29T07:04:30;4.60;;;0.90;;
75295;SDS011;64623;44.738;37.804;2024-03-29T07:05:32;11.07;;;1.52;;
75295;SDS011;64623;44.738;37.804;2024-03-29T07:07:38;6.88;;;2.38;;
75295;SDS011;64623;44.738;37.804;2024-03-29T07:08:41;3.00;;;1.55;;
75295;SDS011;64623;44.738;37.804;2024-03-29T07:09:44;4.13;;;1.15;;
75295;SDS011;64623;44.738;37.804;2024-03-29T07:10:46;11.68;;;2.28;;
75295;SDS011;64623;44.738;37.804;2024-03-29T07:11:49;6.45;;;1.70;;
75295;SDS011;64623;44.738;37.804;2024-03-29T07:12:52;7.13;;;1.58;;
75295;SDS011;64623;44.738;37.804;2024-03-29T07:14:56;5.90;;;1.30;;
75295;SDS011;64623;44.738;37.804;2024-03-29T07:16:01;3.55;;;1.75;;
75295;SDS011;64623;44.738;37.804;2024-03-29T07:17:03;9.40;;;2.55;;
75295;SDS011;64623;44.738;37.804;2024-03-29T07:18:05;10.35;;;2.83;;
75295;SDS011;64623;44.738;37.804;2024-03-29T07:19:08;9.77;;;3.03;;
75295;SDS011;64623;44.738;37.804;2024-03-29T07:20:10;6.65;;;3.10;;
75295;SDS011;64623;44.738;37.804;2024-03-29T07:21:13;10.63;;;3.75;;
75295;SDS011;64623;44.738;37.804;2024-03-29T07:22:15;10.57;;;4.32;;
75295;SDS011;64623;44.738;37.804;2024-03-29T07:23:17;9.73;;;3.75;;
75295;SDS011;64623;44.738;37.804;2024-03-29T07:24:19;12.13;;;3.63;;
75295;SDS011;64623;44.738;37.804;2024-03-29T07:25:21;10.82;;;3.08;;
75295;SDS011;64623;44.738;37.804;2024-03-29T07:26:24;9.23;;;2.97;;
75295;SDS011;64623;44.738;37.804;2024-03-29T07:27:26;19.60;;;4.13;;
75295;SDS011;64623;44.738;37.804;2024-03-29T07:28:31;17.95;;;4.35;;
75295;SDS011;64623;44.738;37.804;2024-03-29T07:29:33;8.55;;;3.38;;
75295;SDS011;64623;44.738;37.804;2024-03-29T07:30:36;10.05;;;3.15;;
75295;SDS011;64623;44.738;37.804;2024-03-29T07:31:39;8.95;;;3.38;;
75295;SDS011;64623;44.738;37.804;2024-03-29T07:32:41;11.50;;;3.15;;
75295;SDS011;64623;44.738;37.804;2024-03-29T07:33:43;10.77;;;3.47;;
75295;SDS011;64623;44.738;37.804;2024-03-29T07:34:45;17.77;;;6.47;;
75295;SDS011;64623;44.738;37.804;2024-03-29T07:35:47;46.00;;;11.40;;